Terminal Aerodrome Forecast
Issued by NWS

Home | Current Version | Previous Version | Text Only | Print | Product List | Glossary On
Versions: 1 2 3 4 5 6 7 8 9 10 11 12 13 14 15 16 17 18 19 20 21 22 23 24 25 26
174
FTUS42 KCAE 250540
TAFCUB
TAF
KCUB 250540Z 2506/2606 19007KT P6SM SKC
     FM250900 VRB05KT P6SM SCT035 BKN100
     FM251200 20007KT P6SM BKN035 BKN060
     FM251500 23012G20KT P6SM BKN035 BKN060
     FM251900 26015G25KT P6SM SCT050
     FM260300 29009G15KT P6SM SKC=

USA.gov is the U.S. government's official web portal to all federal, state and local government web resources and services.